sensor_id;sensor_type;location;lat;lon;timestamp;P1;durP1;ratioP1;P2;durP2;ratioP2
49015;SDS011;34830;44.064;12.566;2022-11-15T00:01:41;15.15;;;9.68;;
49015;SDS011;34830;44.064;12.566;2022-11-15T00:04:26;14.70;;;10.02;;
49015;SDS011;34830;44.064;12.566;2022-11-15T00:07:10;15.50;;;9.23;;
49015;SDS011;34830;44.064;12.566;2022-11-15T00:09:54;13.07;;;8.30;;
49015;SDS011;34830;44.064;12.566;2022-11-15T00:12:38;15.48;;;9.23;;
49015;SDS011;34830;44.064;12.566;2022-11-15T00:15:22;16.80;;;8.63;;
49015;SDS011;34830;44.064;12.566;2022-11-15T00:18:12;14.82;;;9.65;;
49015;SDS011;34830;44.064;12.566;2022-11-15T00:21:02;13.30;;;8.73;;
49015;SDS011;34830;44.064;12.566;2022-11-15T00:23:46;15.18;;;9.23;;
49015;SDS011;34830;44.064;12.566;2022-11-15T00:26:31;15.23;;;9.80;;
49015;SDS011;34830;44.064;12.566;2022-11-15T00:29:15;14.43;;;9.82;;
49015;SDS011;34830;44.064;12.566;2022-11-15T00:31:59;15.77;;;9.88;;
49015;SDS011;34830;44.064;12.566;2022-11-15T00:34:45;16.85;;;11.18;;
49015;SDS011;34830;44.064;12.566;2022-11-15T00:37:29;13.63;;;9.68;;
49015;SDS011;34830;44.064;12.566;2022-11-15T00:40:14;17.00;;;9.48;;
49015;SDS011;34830;44.064;12.566;2022-11-15T00:42:58;13.98;;;9.90;;
49015;SDS011;34830;44.064;12.566;2022-11-15T00:45:42;17.27;;;9.80;;
49015;SDS011;34830;44.064;12.566;2022-11-15T00:48:26;16.60;;;10.05;;
49015;SDS011;34830;44.064;12.566;2022-11-15T00:51:10;13.20;;;9.02;;
49015;SDS011;34830;44.064;12.566;2022-11-15T00:53:55;14.35;;;9.82;;
49015;SDS011;34830;44.064;12.566;2022-11-15T00:56:39;16.80;;;9.05;;
49015;SDS011;34830;44.064;12.566;2022-11-15T00:59:23;14.18;;;9.23;;
49015;SDS011;34830;44.064;12.566;2022-11-15T01:02:07;14.50;;;9.43;;
49015;SDS011;34830;44.064;12.566;2022-11-15T01:04:52;15.60;;;9.63;;
49015;SDS011;34830;44.064;12.566;2022-11-15T01:07:36;14.82;;;9.85;;
49015;SDS011;34830;44.064;12.566;2022-11-15T01:10:21;15.02;;;9.50;;
49015;SDS011;34830;44.064;12.566;2022-11-15T01:13:06;16.60;;;9.85;;
49015;SDS011;34830;44.064;12.566;2022-11-15T01:15:50;15.27;;;9.32;;
49015;SDS011;34830;44.064;12.566;2022-11-15T01:18:34;14.70;;;9.05;;
49015;SDS011;34830;44.064;12.566;2022-11-15T01:21:19;16.80;;;9.80;;
49015;SDS011;34830;44.064;12.566;2022-11-15T01:24:03;15.77;;;9.07;;
49015;SDS011;34830;44.064;12.566;2022-11-15T01:26:47;17.30;;;9.15;;
49015;SDS011;34830;44.064;12.566;2022-11-15T01:29:32;13.48;;;8.63;;
49015;SDS011;34830;44.064;12.566;2022-11-15T01:32:16;16.25;;;8.40;;
49015;SDS011;34830;44.064;12.566;2022-11-15T01:35:00;11.45;;;8.10;;
49015;SDS011;34830;44.064;12.566;2022-11-15T01:37:44;13.38;;;8.32;;
49015;SDS011;34830;44.064;12.566;2022-11-15T01:40:29;12.02;;;7.43;;
49015;SDS011;34830;44.064;12.566;2022-11-15T01:46:28;18.60;;;8.60;;
49015;SDS011;34830;44.064;12.566;2022-11-15T01:49:15;12.88;;;7.95;;
49015;SDS011;34830;44.064;12.566;2022-11-15T01:52:01;12.05;;;7.80;;
49015;SDS011;34830;44.064;12.566;2022-11-15T01:54:46;13.40;;;7.65;;
49015;SDS011;34830;44.064;12.566;2022-11-15T01:57:31;12.25;;;8.05;;
49015;SDS011;34830;44.064;12.566;2022-11-15T02:00:15;10.95;;;7.65;;
49015;SDS011;34830;44.064;12.566;2022-11-15T02:03:00;12.00;;;7.45;;
49015;SDS011;34830;44.064;12.566;2022-11-15T02:05:45;11.80;;;8.00;;
49015;SDS011;34830;44.064;12.566;2022-11-15T02:08:29;15.02;;;8.77;;
49015;SDS011;34830;44.064;12.566;2022-11-15T02:11:14;12.00;;;8.20;;
49015;SDS011;34830;44.064;12.566;2022-11-15T02:13:58;13.32;;;8.85;;
49015;SDS011;34830;44.064;12.566;2022-11-15T02:16:47;14.07;;;8.88;;
49015;SDS011;34830;44.064;12.566;2022-11-15T02:22:22;16.38;;;8.68;;
49015;SDS011;34830;44.064;12.566;2022-11-15T02:25:37;15.55;;;8.77;;
49015;SDS011;34830;44.064;12.566;2022-11-15T02:28:36;16.55;;;9.57;;
49015;SDS011;34830;44.064;12.566;2022-11-15T02:34:54;17.13;;;9.38;;
49015;SDS011;34830;44.064;12.566;2022-11-15T02:43:10;12.95;;;8.02;;
49015;SDS011;34830;44.064;12.566;2022-11-15T02:49:01;16.20;;;8.93;;
49015;SDS011;34830;44.064;12.566;2022-11-15T02:51:45;15.77;;;8.60;;
49015;SDS011;34830;44.064;12.566;2022-11-15T02:54:32;19.10;;;9.93;;
49015;SDS011;34830;44.064;12.566;2022-11-15T02:57:17;19.58;;;10.85;;
49015;SDS011;34830;44.064;12.566;2022-11-15T03:00:05;14.88;;;9.30;;
49015;SDS011;34830;44.064;12.566;2022-11-15T03:09:02;18.85;;;10.95;;
49015;SDS011;34830;44.064;12.566;2022-11-15T03:11:49;14.68;;;9.13;;
49015;SDS011;34830;44.064;12.566;2022-11-15T03:14:36;15.70;;;9.13;;
49015;SDS011;34830;44.064;12.566;2022-11-15T03:17:23;15.60;;;9.85;;
49015;SDS011;34830;44.064;12.566;2022-11-15T03:20:08;16.45;;;9.70;;
49015;SDS011;34830;44.064;12.566;2022-11-15T03:22:54;16.85;;;8.77;;
49015;SDS011;34830;44.064;12.566;2022-11-15T03:25:46;17.48;;;9.38;;
49015;SDS011;34830;44.064;12.566;2022-11-15T03:31:15;17.55;;;9.63;;
49015;SDS011;34830;44.064;12.566;2022-11-15T03:34:34;17.83;;;9.70;;
49015;SDS011;34830;44.064;12.566;2022-11-15T03:37:20;16.65;;;9.07;;
49015;SDS011;34830;44.064;12.566;2022-11-15T03:40:06;16.48;;;9.35;;
49015;SDS011;34830;44.064;12.566;2022-11-15T03:45:50;17.45;;;9.23;;
49015;SDS011;34830;44.064;12.566;2022-11-15T03:48:37;19.13;;;10.75;;
49015;SDS011;34830;44.064;12.566;2022-11-15T03:51:24;19.73;;;11.38;;
49015;SDS011;34830;44.064;12.566;2022-11-15T03:54:08;15.88;;;9.15;;
49015;SDS011;34830;44.064;12.566;2022-11-15T03:56:52;17.60;;;9.75;;
49015;SDS011;34830;44.064;12.566;2022-11-15T03:59:36;19.17;;;11.13;;
49015;SDS011;34830;44.064;12.566;2022-11-15T04:02:21;17.40;;;10.10;;
49015;SDS011;34830;44.064;12.566;2022-11-15T04:05:05;15.68;;;8.50;;
49015;SDS011;34830;44.064;12.566;2022-11-15T04:07:49;16.75;;;10.27;;
49015;SDS011;34830;44.064;12.566;2022-11-15T04:10:34;19.35;;;9.52;;
49015;SDS011;34830;44.064;12.566;2022-11-15T04:13:18;21.02;;;11.27;;
49015;SDS011;34830;44.064;12.566;2022-11-15T04:16:02;17.85;;;11.35;;
49015;SDS011;34830;44.064;12.566;2022-11-15T04:18:47;22.70;;;11.07;;
49015;SDS011;34830;44.064;12.566;2022-11-15T04:21:51;17.85;;;10.50;;
49015;SDS011;34830;44.064;12.566;2022-11-15T04:24:54;16.98;;;10.10;;
49015;SDS011;34830;44.064;12.566;2022-11-15T04:27:38;19.55;;;10.07;;
49015;SDS011;34830;44.064;12.566;2022-11-15T04:30:23;19.85;;;11.07;;
49015;SDS011;34830;44.064;12.566;2022-11-15T04:33:07;19.05;;;10.40;;
49015;SDS011;34830;44.064;12.566;2022-11-15T04:35:51;21.20;;;10.95;;
49015;SDS011;34830;44.064;12.566;2022-11-15T04:38:55;23.35;;;10.90;;
49015;SDS011;34830;44.064;12.566;2022-11-15T04:41:39;23.98;;;12.68;;
49015;SDS011;34830;44.064;12.566;2022-11-15T04:44:23;25.02;;;12.68;;
49015;SDS011;34830;44.064;12.566;2022-11-15T04:47:07;24.23;;;12.00;;
49015;SDS011;34830;44.064;12.566;2022-11-15T04:49:52;29.67;;;13.68;;
49015;SDS011;34830;44.064;12.566;2022-11-15T04:52:36;21.50;;;11.43;;
49015;SDS011;34830;44.064;12.566;2022-11-15T04:55:20;20.23;;;10.73;;
49015;SDS011;34830;44.064;12.566;2022-11-15T04:58:05;20.90;;;11.43;;
49015;SDS011;34830;44.064;12.566;2022-11-15T05:00:49;19.77;;;10.65;;
49015;SDS011;34830;44.064;12.566;2022-11-15T05:03:33;22.48;;;11.23;;
49015;SDS011;34830;44.064;12.566;2022-11-15T05:06:37;23.02;;;11.18;;
49015;SDS011;34830;44.064;12.566;2022-11-15T05:09:21;18.77;;;10.43;;
49015;SDS011;34830;44.064;12.566;2022-11-15T05:12:06;18.05;;;10.63;;
49015;SDS011;34830;44.064;12.566;2022-11-15T05:14:50;22.27;;;10.57;;
49015;SDS011;34830;44.064;12.566;2022-11-15T05:17:34;20.63;;;10.73;;
49015;SDS011;34830;44.064;12.566;2022-11-15T05:20:18;22.65;;;12.23;;
49015;SDS011;34830;44.064;12.566;2022-11-15T05:23:03;22.95;;;12.45;;
49015;SDS011;34830;44.064;12.566;2022-11-15T05:25:47;26.60;;;12.38;;
49015;SDS011;34830;44.064;12.566;2022-11-15T05:28:31;27.30;;;13.88;;
49015;SDS011;34830;44.064;12.566;2022-11-15T05:31:16;27.50;;;14.27;;
49015;SDS011;34830;44.064;12.566;2022-11-15T05:34:00;30.45;;;14.40;;
49015;SDS011;34830;44.064;12.566;2022-11-15T05:36:44;25.17;;;12.15;;
49015;SDS011;34830;44.064;12.566;2022-11-15T05:39:29;25.95;;;14.05;;
49015;SDS011;34830;44.064;12.566;2022-11-15T05:42:14;31.40;;;14.68;;
49015;SDS011;34830;44.064;12.566;2022-11-15T05:44:59;30.75;;;14.77;;
49015;SDS011;34830;44.064;12.566;2022-11-15T05:47:44;28.25;;;13.80;;
49015;SDS011;34830;44.064;12.566;2022-11-15T05:50:28;24.95;;;13.23;;
49015;SDS011;34830;44.064;12.566;2022-11-15T05:53:13;25.48;;;12.85;;
49015;SDS011;34830;44.064;12.566;2022-11-15T05:55:58;27.05;;;12.88;;
49015;SDS011;34830;44.064;12.566;2022-11-15T05:58:42;25.25;;;12.70;;
49015;SDS011;34830;44.064;12.566;2022-11-15T06:01:27;28.42;;;12.88;;
49015;SDS011;34830;44.064;12.566;2022-11-15T06:04:11;32.58;;;13.15;;
49015;SDS011;34830;44.064;12.566;2022-11-15T06:06:57;28.08;;;12.85;;
49015;SDS011;34830;44.064;12.566;2022-11-15T06:09:41;27.85;;;13.27;;
49015;SDS011;34830;44.064;12.566;2022-11-15T06:12:26;25.42;;;12.93;;
49015;SDS011;34830;44.064;12.566;2022-11-15T06:15:10;33.47;;;14.88;;
49015;SDS011;34830;44.064;12.566;2022-11-15T06:17:58;28.98;;;14.20;;
49015;SDS011;34830;44.064;12.566;2022-11-15T06:20:42;27.75;;;14.05;;
49015;SDS011;34830;44.064;12.566;2022-11-15T06:23:27;31.40;;;15.52;;
49015;SDS011;34830;44.064;12.566;2022-11-15T06:26:11;28.85;;;13.73;;
49015;SDS011;34830;44.064;12.566;2022-11-15T06:28:55;26.02;;;14.15;;
49015;SDS011;34830;44.064;12.566;2022-11-15T06:31:40;27.33;;;13.35;;
49015;SDS011;34830;44.064;12.566;2022-11-15T06:34:24;33.53;;;15.60;;
49015;SDS011;34830;44.064;12.566;2022-11-15T06:37:08;31.38;;;15.85;;
49015;SDS011;34830;44.064;12.566;2022-11-15T06:39:53;45.40;;;31.42;;
49015;SDS011;34830;44.064;12.566;2022-11-15T06:42:37;31.88;;;17.40;;
49015;SDS011;34830;44.064;12.566;2022-11-15T06:45:21;34.33;;;16.15;;
49015;SDS011;34830;44.064;12.566;2022-11-15T06:48:05;35.55;;;18.05;;
49015;SDS011;34830;44.064;12.566;2022-11-15T06:50:53;37.15;;;16.83;;
49015;SDS011;34830;44.064;12.566;2022-11-15T06:53:37;37.85;;;17.92;;
49015;SDS011;34830;44.064;12.566;2022-11-15T06:56:22;40.90;;;18.00;;
49015;SDS011;34830;44.064;12.566;2022-11-15T06:59:06;37.58;;;19.55;;
49015;SDS011;34830;44.064;12.566;2022-11-15T07:01:50;48.72;;;21.45;;
49015;SDS011;34830;44.064;12.566;2022-11-15T07:04:34;40.45;;;19.75;;
49015;SDS011;34830;44.064;12.566;2022-11-15T07:07:20;36.60;;;16.30;;
49015;SDS011;34830;44.064;12.566;2022-11-15T07:10:04;32.08;;;16.27;;
49015;SDS011;34830;44.064;12.566;2022-11-15T07:12:48;39.67;;;17.10;;
49015;SDS011;34830;44.064;12.566;2022-11-15T07:15:32;43.45;;;19.52;;
49015;SDS011;34830;44.064;12.566;2022-11-15T07:18:17;38.28;;;17.92;;
49015;SDS011;34830;44.064;12.566;2022-11-15T07:21:05;45.53;;;20.65;;
49015;SDS011;34830;44.064;12.566;2022-11-15T07:23:50;37.80;;;19.85;;
49015;SDS011;34830;44.064;12.566;2022-11-15T07:26:34;37.83;;;18.95;;
49015;SDS011;34830;44.064;12.566;2022-11-15T07:29:18;42.38;;;21.48;;
49015;SDS011;34830;44.064;12.566;2022-11-15T07:32:03;42.15;;;21.40;;
49015;SDS011;34830;44.064;12.566;2022-11-15T07:34:47;38.38;;;21.17;;
49015;SDS011;34830;44.064;12.566;2022-11-15T07:37:31;39.58;;;20.83;;
49015;SDS011;34830;44.064;12.566;2022-11-15T07:40:17;41.15;;;20.85;;
49015;SDS011;34830;44.064;12.566;2022-11-15T07:43:02;35.38;;;18.73;;
49015;SDS011;34830;44.064;12.566;2022-11-15T07:45:47;36.97;;;20.52;;
49015;SDS011;34830;44.064;12.566;2022-11-15T07:48:31;43.13;;;19.65;;
49015;SDS011;34830;44.064;12.566;2022-11-15T07:51:16;35.50;;;19.48;;
49015;SDS011;34830;44.064;12.566;2022-11-15T07:54:00;31.98;;;18.77;;
49015;SDS011;34830;44.064;12.566;2022-11-15T07:56:45;39.95;;;18.90;;
49015;SDS011;34830;44.064;12.566;2022-11-15T07:59:29;37.00;;;19.27;;
49015;SDS011;34830;44.064;12.566;2022-11-15T08:02:13;39.05;;;20.48;;
49015;SDS011;34830;44.064;12.566;2022-11-15T08:05:00;39.60;;;20.75;;
49015;SDS011;34830;44.064;12.566;2022-11-15T08:07:44;35.15;;;18.48;;
49015;SDS011;34830;44.064;12.566;2022-11-15T08:10:28;38.42;;;20.30;;
49015;SDS011;34830;44.064;12.566;2022-11-15T08:13:13;30.33;;;18.75;;
49015;SDS011;34830;44.064;12.566;2022-11-15T08:15:58;32.35;;;17.83;;
49015;SDS011;34830;44.064;12.566;2022-11-15T08:18:43;35.13;;;18.17;;
49015;SDS011;34830;44.064;12.566;2022-11-15T08:21:27;33.28;;;16.52;;
49015;SDS011;34830;44.064;12.566;2022-11-15T08:24:11;33.45;;;17.77;;
49015;SDS011;34830;44.064;12.566;2022-11-15T08:26:56;31.67;;;16.83;;
49015;SDS011;34830;44.064;12.566;2022-11-15T08:29:41;31.02;;;17.90;;
49015;SDS011;34830;44.064;12.566;2022-11-15T08:32:25;28.60;;;17.05;;
49015;SDS011;34830;44.064;12.566;2022-11-15T08:35:10;37.63;;;19.63;;
49015;SDS011;34830;44.064;12.566;2022-11-15T08:37:54;33.90;;;20.17;;
49015;SDS011;34830;44.064;12.566;2022-11-15T08:40:38;37.58;;;19.38;;
49015;SDS011;34830;44.064;12.566;2022-11-15T08:43:23;33.08;;;18.88;;
49015;SDS011;34830;44.064;12.566;2022-11-15T08:46:08;33.33;;;19.15;;
49015;SDS011;34830;44.064;12.566;2022-11-15T08:48:54;31.60;;;18.13;;
49015;SDS011;34830;44.064;12.566;2022-11-15T08:51:38;32.92;;;18.30;;
49015;SDS011;34830;44.064;12.566;2022-11-15T08:54:23;36.63;;;18.55;;
49015;SDS011;34830;44.064;12.566;2022-11-15T08:57:10;28.23;;;17.90;;
49015;SDS011;34830;44.064;12.566;2022-11-15T08:59:54;35.53;;;19.30;;
49015;SDS011;34830;44.064;12.566;2022-11-15T09:02:39;26.40;;;18.10;;
49015;SDS011;34830;44.064;12.566;2022-11-15T09:05:23;33.92;;;19.38;;
49015;SDS011;34830;44.064;12.566;2022-11-15T09:08:08;28.20;;;17.83;;
49015;SDS011;34830;44.064;12.566;2022-11-15T09:10:52;29.38;;;18.90;;
49015;SDS011;34830;44.064;12.566;2022-11-15T09:13:36;28.08;;;17.98;;
49015;SDS011;34830;44.064;12.566;2022-11-15T09:16:20;33.22;;;18.77;;
49015;SDS011;34830;44.064;12.566;2022-11-15T09:19:05;32.40;;;18.40;;
49015;SDS011;34830;44.064;12.566;2022-11-15T09:21:49;31.17;;;20.02;;
49015;SDS011;34830;44.064;12.566;2022-11-15T09:24:34;35.28;;;19.48;;
49015;SDS011;34830;44.064;12.566;2022-11-15T09:27:18;36.10;;;21.88;;
49015;SDS011;34830;44.064;12.566;2022-11-15T09:30:03;35.80;;;21.85;;
49015;SDS011;34830;44.064;12.566;2022-11-15T09:32:47;39.33;;;22.52;;
49015;SDS011;34830;44.064;12.566;2022-11-15T09:35:32;38.65;;;22.80;;
49015;SDS011;34830;44.064;12.566;2022-11-15T09:38:16;36.13;;;23.15;;
49015;SDS011;34830;44.064;12.566;2022-11-15T09:41:18;32.72;;;21.55;;
49015;SDS011;34830;44.064;12.566;2022-11-15T09:49:50;42.03;;;22.48;;
49015;SDS011;34830;44.064;12.566;2022-11-15T09:52:23;40.65;;;22.52;;
49015;SDS011;34830;44.064;12.566;2022-11-15T09:54:51;45.35;;;24.88;;
49015;SDS011;34830;44.064;12.566;2022-11-15T09:57:19;50.20;;;22.75;;
49015;SDS011;34830;44.064;12.566;2022-11-15T10:00:00;48.38;;;23.73;;
49015;SDS011;34830;44.064;12.566;2022-11-15T10:05:12;35.47;;;22.10;;
49015;SDS011;34830;44.064;12.566;2022-11-15T10:12:34;46.05;;;25.25;;
49015;SDS011;34830;44.064;12.566;2022-11-15T10:15:05;45.00;;;24.77;;
49015;SDS011;34830;44.064;12.566;2022-11-15T10:20:18;43.40;;;26.10;;
49015;SDS011;34830;44.064;12.566;2022-11-15T10:22:52;39.22;;;24.70;;
49015;SDS011;34830;44.064;12.566;2022-11-15T10:25:32;34.90;;;23.42;;
49015;SDS011;34830;44.064;12.566;2022-11-15T10:28:05;30.25;;;19.63;;
49015;SDS011;34830;44.064;12.566;2022-11-15T10:30:36;32.97;;;19.80;;
49015;SDS011;34830;44.064;12.566;2022-11-15T10:33:23;27.92;;;19.02;;
49015;SDS011;34830;44.064;12.566;2022-11-15T10:43:44;22.65;;;14.43;;
49015;SDS011;34830;44.064;12.566;2022-11-15T10:46:20;19.85;;;11.90;;
49015;SDS011;34830;44.064;12.566;2022-11-15T10:48:46;15.65;;;9.95;;
49015;SDS011;34830;44.064;12.566;2022-11-15T10:51:27;17.90;;;9.25;;
49015;SDS011;34830;44.064;12.566;2022-11-15T10:53:54;17.75;;;10.25;;
49015;SDS011;34830;44.064;12.566;2022-11-15T10:56:22;17.75;;;10.77;;
49015;SDS011;34830;44.064;12.566;2022-11-15T10:58:55;17.30;;;9.52;;
49015;SDS011;34830;44.064;12.566;2022-11-15T11:01:22;12.93;;;8.63;;
49015;SDS011;34830;44.064;12.566;2022-11-15T11:04:02;12.55;;;7.85;;
49015;SDS011;34830;44.064;12.566;2022-11-15T11:06:28;10.68;;;7.38;;
49015;SDS011;34830;44.064;12.566;2022-11-15T11:11:20;8.35;;;6.00;;
49015;SDS011;34830;44.064;12.566;2022-11-15T11:13:46;9.65;;;5.97;;
49015;SDS011;34830;44.064;12.566;2022-11-15T11:21:38;12.32;;;6.57;;
49015;SDS011;34830;44.064;12.566;2022-11-15T11:26:35;9.30;;;4.60;;
49015;SDS011;34830;44.064;12.566;2022-11-15T11:32:07;9.52;;;3.90;;
49015;SDS011;34830;44.064;12.566;2022-11-15T11:34:43;8.88;;;4.50;;
49015;SDS011;34830;44.064;12.566;2022-11-15T11:37:17;7.82;;;5.20;;
49015;SDS011;34830;44.064;12.566;2022-11-15T11:42:26;9.48;;;5.60;;
49015;SDS011;34830;44.064;12.566;2022-11-15T11:44:58;14.97;;;6.03;;
49015;SDS011;34830;44.064;12.566;2022-11-15T11:47:50;10.00;;;5.88;;
49015;SDS011;34830;44.064;12.566;2022-11-15T11:50:15;9.50;;;5.68;;
49015;SDS011;34830;44.064;12.566;2022-11-15T11:55:20;9.70;;;6.63;;
49015;SDS011;34830;44.064;12.566;2022-11-15T12:00:20;10.20;;;6.85;;
49015;SDS011;34830;44.064;12.566;2022-11-15T12:05:46;10.70;;;6.43;;
49015;SDS011;34830;44.064;12.566;2022-11-15T12:10:40;12.77;;;7.30;;
49015;SDS011;34830;44.064;12.566;2022-11-15T12:13:16;13.05;;;7.60;;
49015;SDS011;34830;44.064;12.566;2022-11-15T12:18:14;9.57;;;6.68;;
49015;SDS011;34830;44.064;12.566;2022-11-15T12:20:41;8.80;;;6.57;;
49015;SDS011;34830;44.064;12.566;2022-11-15T12:23:12;9.88;;;7.07;;
49015;SDS011;34830;44.064;12.566;2022-11-15T12:30:59;10.07;;;6.00;;
49015;SDS011;34830;44.064;12.566;2022-11-15T12:33:40;10.70;;;6.47;;
49015;SDS011;34830;44.064;12.566;2022-11-15T12:38:57;8.65;;;6.60;;
49015;SDS011;34830;44.064;12.566;2022-11-15T12:41:27;11.38;;;6.50;;
49015;SDS011;34830;44.064;12.566;2022-11-15T12:43:54;11.27;;;6.43;;
49015;SDS011;34830;44.064;12.566;2022-11-15T12:48:56;11.38;;;6.90;;
49015;SDS011;34830;44.064;12.566;2022-11-15T12:51:23;13.18;;;6.75;;
49015;SDS011;34830;44.064;12.566;2022-11-15T13:17:47;13.65;;;8.35;;
49015;SDS011;34830;44.064;12.566;2022-11-15T13:23:02;18.63;;;9.25;;
49015;SDS011;34830;44.064;12.566;2022-11-15T13:33:36;15.15;;;9.38;;
49015;SDS011;34830;44.064;12.566;2022-11-15T13:36:06;15.43;;;10.00;;
49015;SDS011;34830;44.064;12.566;2022-11-15T13:38:34;13.93;;;9.38;;
49015;SDS011;34830;44.064;12.566;2022-11-15T13:41:10;16.90;;;10.20;;
49015;SDS011;34830;44.064;12.566;2022-11-15T13:43:36;13.70;;;9.88;;
49015;SDS011;34830;44.064;12.566;2022-11-15T13:48:31;19.15;;;11.68;;
49015;SDS011;34830;44.064;12.566;2022-11-15T13:50:59;21.83;;;12.00;;
49015;SDS011;34830;44.064;12.566;2022-11-15T13:53:48;25.13;;;17.73;;
49015;SDS011;34830;44.064;12.566;2022-11-15T13:56:15;21.75;;;14.93;;
49015;SDS011;34830;44.064;12.566;2022-11-15T13:58:42;22.77;;;12.98;;
49015;SDS011;34830;44.064;12.566;2022-11-15T14:01:08;18.50;;;11.85;;
49015;SDS011;34830;44.064;12.566;2022-11-15T14:03:41;16.35;;;10.48;;
49015;SDS011;34830;44.064;12.566;2022-11-15T14:06:15;13.48;;;9.85;;
49015;SDS011;34830;44.064;12.566;2022-11-15T14:09:14;11.68;;;8.27;;
49015;SDS011;34830;44.064;12.566;2022-11-15T14:11:29;12.73;;;7.95;;
49015;SDS011;34830;44.064;12.566;2022-11-15T14:16:34;9.70;;;5.43;;
49015;SDS011;34830;44.064;12.566;2022-11-15T14:19:01;8.27;;;5.15;;
49015;SDS011;34830;44.064;12.566;2022-11-15T14:21:27;8.70;;;4.80;;
49015;SDS011;34830;44.064;12.566;2022-11-15T14:24:18;7.50;;;4.75;;
49015;SDS011;34830;44.064;12.566;2022-11-15T14:26:45;7.82;;;4.60;;
49015;SDS011;34830;44.064;12.566;2022-11-15T14:31:48;8.23;;;4.63;;
49015;SDS011;34830;44.064;12.566;2022-11-15T14:34:14;9.35;;;4.93;;
49015;SDS011;34830;44.064;12.566;2022-11-15T14:36:40;8.63;;;4.65;;
49015;SDS011;34830;44.064;12.566;2022-11-15T14:39:05;5.60;;;3.92;;
49015;SDS011;34830;44.064;12.566;2022-11-15T14:41:34;8.98;;;5.00;;
49015;SDS011;34830;44.064;12.566;2022-11-15T14:44:03;7.38;;;4.20;;
49015;SDS011;34830;44.064;12.566;2022-11-15T14:46:29;9.73;;;4.32;;
49015;SDS011;34830;44.064;12.566;2022-11-15T14:48:56;8.15;;;4.20;;
49015;SDS011;34830;44.064;12.566;2022-11-15T14:51:22;8.13;;;4.63;;
49015;SDS011;34830;44.064;12.566;2022-11-15T14:53:48;10.55;;;4.70;;
49015;SDS011;34830;44.064;12.566;2022-11-15T14:56:13;8.43;;;4.90;;
49015;SDS011;34830;44.064;12.566;2022-11-15T14:58:40;7.20;;;4.10;;
49015;SDS011;34830;44.064;12.566;2022-11-15T15:01:14;8.75;;;4.70;;
49015;SDS011;34830;44.064;12.566;2022-11-15T15:03:41;7.90;;;4.93;;
49015;SDS011;34830;44.064;12.566;2022-11-15T15:06:09;6.97;;;4.90;;
49015;SDS011;34830;44.064;12.566;2022-11-15T15:08:35;7.15;;;4.85;;
49015;SDS011;34830;44.064;12.566;2022-11-15T15:11:01;8.98;;;5.10;;
49015;SDS011;34830;44.064;12.566;2022-11-15T15:13:27;7.97;;;5.35;;
49015;SDS011;34830;44.064;12.566;2022-11-15T15:15:54;8.88;;;5.20;;
49015;SDS011;34830;44.064;12.566;2022-11-15T15:18:20;7.05;;;4.75;;
49015;SDS011;34830;44.064;12.566;2022-11-15T15:20:47;7.47;;;5.07;;
49015;SDS011;34830;44.064;12.566;2022-11-15T15:23:15;9.75;;;5.85;;
49015;SDS011;34830;44.064;12.566;2022-11-15T15:25:41;6.50;;;4.88;;
49015;SDS011;34830;44.064;12.566;2022-11-15T15:28:07;9.32;;;5.53;;
49015;SDS011;34830;44.064;12.566;2022-11-15T15:30:33;8.77;;;4.80;;
49015;SDS011;34830;44.064;12.566;2022-11-15T15:32:59;10.02;;;4.80;;
49015;SDS011;34830;44.064;12.566;2022-11-15T15:35:34;7.60;;;5.85;;
49015;SDS011;34830;44.064;12.566;2022-11-15T15:38:03;8.57;;;5.43;;
49015;SDS011;34830;44.064;12.566;2022-11-15T15:40:29;7.28;;;5.18;;
49015;SDS011;34830;44.064;12.566;2022-11-15T15:42:56;10.18;;;5.38;;
49015;SDS011;34830;44.064;12.566;2022-11-15T15:45:22;8.18;;;5.45;;
49015;SDS011;34830;44.064;12.566;2022-11-15T15:47:47;11.00;;;6.40;;
49015;SDS011;34830;44.064;12.566;2022-11-15T15:50:25;8.57;;;5.82;;
49015;SDS011;34830;44.064;12.566;2022-11-15T15:52:51;11.82;;;6.95;;
49015;SDS011;34830;44.064;12.566;2022-11-15T15:55:17;11.30;;;7.07;;
49015;SDS011;34830;44.064;12.566;2022-11-15T15:57:43;9.70;;;6.20;;
49015;SDS011;34830;44.064;12.566;2022-11-15T16:00:09;11.18;;;7.35;;
49015;SDS011;34830;44.064;12.566;2022-11-15T16:02:39;11.77;;;7.90;;
49015;SDS011;34830;44.064;12.566;2022-11-15T16:05:05;11.30;;;8.20;;
49015;SDS011;34830;44.064;12.566;2022-11-15T16:07:31;14.43;;;8.68;;
49015;SDS011;34830;44.064;12.566;2022-11-15T16:09:57;14.65;;;10.02;;
49015;SDS011;34830;44.064;12.566;2022-11-15T16:12:29;16.48;;;9.52;;
49015;SDS011;34830;44.064;12.566;2022-11-15T16:14:55;11.73;;;8.98;;
49015;SDS011;34830;44.064;12.566;2022-11-15T16:17:22;14.27;;;10.15;;
49015;SDS011;34830;44.064;12.566;2022-11-15T16:19:49;17.27;;;10.10;;
49015;SDS011;34830;44.064;12.566;2022-11-15T16:22:15;15.27;;;9.75;;
49015;SDS011;34830;44.064;12.566;2022-11-15T16:24:41;13.48;;;9.85;;
49015;SDS011;34830;44.064;12.566;2022-11-15T16:27:12;17.05;;;10.50;;
49015;SDS011;34830;44.064;12.566;2022-11-15T16:29:40;13.23;;;9.55;;
49015;SDS011;34830;44.064;12.566;2022-11-15T16:32:06;13.38;;;9.98;;
49015;SDS011;34830;44.064;12.566;2022-11-15T16:34:31;12.30;;;8.70;;
49015;SDS011;34830;44.064;12.566;2022-11-15T16:36:57;10.63;;;8.43;;
49015;SDS011;34830;44.064;12.566;2022-11-15T16:39:23;10.77;;;8.02;;
49015;SDS011;34830;44.064;12.566;2022-11-15T16:41:49;13.00;;;8.10;;
49015;SDS011;34830;44.064;12.566;2022-11-15T16:44:14;12.50;;;8.90;;
49015;SDS011;34830;44.064;12.566;2022-11-15T16:46:41;11.63;;;8.82;;
49015;SDS011;34830;44.064;12.566;2022-11-15T16:49:11;16.23;;;10.35;;
49015;SDS011;34830;44.064;12.566;2022-11-15T16:51:37;13.32;;;8.93;;
49015;SDS011;34830;44.064;12.566;2022-11-15T16:54:04;15.40;;;10.20;;
49015;SDS011;34830;44.064;12.566;2022-11-15T16:56:29;11.88;;;9.10;;
49015;SDS011;34830;44.064;12.566;2022-11-15T16:58:56;12.48;;;9.63;;
49015;SDS011;34830;44.064;12.566;2022-11-15T17:01:31;14.02;;;10.02;;
49015;SDS011;34830;44.064;12.566;2022-11-15T17:03:58;14.05;;;9.27;;
49015;SDS011;34830;44.064;12.566;2022-11-15T17:06:24;16.25;;;9.57;;
49015;SDS011;34830;44.064;12.566;2022-11-15T17:08:50;13.63;;;9.32;;
49015;SDS011;34830;44.064;12.566;2022-11-15T17:11:17;16.25;;;10.82;;
49015;SDS011;34830;44.064;12.566;2022-11-15T17:13:43;15.38;;;10.65;;
49015;SDS011;34830;44.064;12.566;2022-11-15T17:16:10;16.17;;;11.10;;
49015;SDS011;34830;44.064;12.566;2022-11-15T17:18:36;14.80;;;10.25;;
49015;SDS011;34830;44.064;12.566;2022-11-15T17:21:10;17.02;;;9.95;;
49015;SDS011;34830;44.064;12.566;2022-11-15T17:23:37;15.45;;;9.85;;
49015;SDS011;34830;44.064;12.566;2022-11-15T17:26:03;15.05;;;10.95;;
49015;SDS011;34830;44.064;12.566;2022-11-15T17:28:30;13.32;;;9.13;;
49015;SDS011;34830;44.064;12.566;2022-11-15T17:30:56;13.43;;;9.93;;
49015;SDS011;34830;44.064;12.566;2022-11-15T17:33:22;13.18;;;9.48;;
49015;SDS011;34830;44.064;12.566;2022-11-15T17:35:58;11.88;;;8.65;;
49015;SDS011;34830;44.064;12.566;2022-11-15T17:38:24;15.35;;;9.27;;